Time;durP1;ratioP1;P1;durP2;ratioP2;P2;SDS_P1;SDS_P2;PMS_P1;PMS_P2;Temp;Humidity;BMP_temperature;BMP_pressure;BME280_temperature;BME280_humidity;BME280_pressure;Samples;Min_cycle;Max_cycle;Signal;HPM_P1;HPM_P2
2023/04/14 00:00:02;;;;;;;9.82;3.35;;;;;;;;;;4957646;29;20027;-65
2023/04/14 00:02:27;;;;;;;6.38;2.45;;;;;;;;;;4956712;29;20031;-67
2023/04/14 00:04:53;;;;;;;7.60;2.70;;;;;;;;;;4956293;29;20471;-66
2023/04/14 00:07:18;;;;;;;7.30;2.83;;;;;;;;;;4955666;29;20034;-69
2023/04/14 00:09:43;;;;;;;8.30;2.57;;;;;;;;;;4956100;29;20043;-66
2023/04/14 00:12:08;;;;;;;8.00;2.60;;;;;;;;;;4956124;28;20019;-66
2023/04/14 00:14:33;;;;;;;6.75;2.35;;;;;;;;;;4956224;29;20376;-66
2023/04/14 00:16:58;;;;;;;6.10;2.53;;;;;;;;;;4955598;29;20023;-66
2023/04/14 00:19:24;;;;;;;8.18;3.00;;;;;;;;;;4955953;29;20102;-67
2023/04/14 00:21:49;;;;;;;6.97;3.23;;;;;;;;;;4956616;29;20039;-65
2023/04/14 00:24:14;;;;;;;7.57;2.67;;;;;;;;;;4956259;29;20966;-66
2023/04/14 00:26:40;;;;;;;7.60;2.80;;;;;;;;;;4954975;28;20139;-67
2023/04/14 00:29:05;;;;;;;6.55;3.00;;;;;;;;;;4955639;29;20387;-66
2023/04/14 00:31:30;;;;;;;10.67;3.00;;;;;;;;;;4955790;29;20019;-67
2023/04/14 00:33:55;;;;;;;7.40;2.67;;;;;;;;;;4955375;29;20547;-66
2023/04/14 00:36:20;;;;;;;6.87;2.70;;;;;;;;;;4954836;29;20102;-67
2023/04/14 00:38:45;;;;;;;6.90;2.90;;;;;;;;;;4955150;29;20368;-67
2023/04/14 00:41:11;;;;;;;7.20;2.60;;;;;;;;;;4955164;29;20059;-67
2023/04/14 00:43:36;;;;;;;6.60;2.78;;;;;;;;;;4955275;29;20063;-68
2023/04/14 00:46:01;;;;;;;7.35;2.80;;;;;;;;;;4955142;29;20020;-67
2023/04/14 00:48:26;;;;;;;8.10;2.67;;;;;;;;;;4954974;29;20039;-67
2023/04/14 00:50:51;;;;;;;7.83;2.50;;;;;;;;;;4955383;29;20485;-65
2023/04/14 00:53:18;;;;;;;6.82;2.80;;;;;;;;;;4955406;29;20082;-65
2023/04/14 00:55:44;;;;;;;6.32;2.70;;;;;;;;;;4955527;29;20082;-66
2023/04/14 00:58:10;;;;;;;8.90;2.90;;;;;;;;;;4954558;29;20467;-67
2023/04/14 01:00:36;;;;;;;6.75;2.92;;;;;;;;;;4954435;28;20053;-66
2023/04/14 01:03:02;;;;;;;8.50;3.13;;;;;;;;;;4954563;29;20093;-66
2023/04/14 01:05:27;;;;;;;8.30;3.05;;;;;;;;;;4954811;29;20106;-69
2023/04/14 01:07:52;;;;;;;7.65;3.13;;;;;;;;;;4954635;29;20244;-67
2023/04/14 01:10:17;;;;;;;6.78;2.90;;;;;;;;;;4954764;29;20055;-65
2023/04/14 01:12:54;;;;;;;6.80;2.80;;;;;;;;;;4955248;28;20032;-67
2023/04/14 01:15:25;;;;;;;6.18;2.80;;;;;;;;;;4954751;29;20023;-65
2023/04/14 01:17:53;;;;;;;8.93;3.33;;;;;;;;;;4954203;29;20106;-65
2023/04/14 01:20:27;;;;;;;8.45;3.20;;;;;;;;;;4965064;28;20109;-68
2023/04/14 01:22:54;;;;;;;11.55;3.20;;;;;;;;;;4973833;28;20118;-65
2023/04/14 01:25:21;;;;;;;;;;;;;;;;;;4975050;28;20023;-68
2023/04/14 01:28:03;;;;;;;6.80;3.05;;;;;;;;;;4974041;28;20305;-67
2023/04/14 01:30:34;;;;;;;8.43;3.10;;;;;;;;;;4975329;28;20049;-66
2023/04/14 01:33:03;;;;;;;7.45;2.88;;;;;;;;;;4974233;28;20023;-69
2023/04/14 01:35:33;;;;;;;9.05;3.03;;;;;;;;;;4974048;28;20062;-66
2023/04/14 01:38:02;;;;;;;6.70;3.00;;;;;;;;;;4973189;28;20105;-65
2023/04/14 01:40:29;;;;;;;9.18;2.90;;;;;;;;;;4973551;28;20443;-69
2023/04/14 01:42:54;;;;;;;;;;;;;;;;;;4973783;28;20035;-66
2023/04/14 01:45:21;;;;;;;6.60;2.83;;;;;;;;;;4973450;28;19936;-66
2023/04/14 01:47:47;;;;;;;7.20;3.03;;;;;;;;;;4972548;28;20438;-65
2023/04/14 01:50:13;;;;;;;5.72;2.83;;;;;;;;;;4973688;28;20027;-67
2023/04/14 01:52:39;;;;;;;7.70;3.00;;;;;;;;;;4973247;28;20027;-65
2023/04/14 01:55:05;;;;;;;8.55;3.53;;;;;;;;;;4973488;28;20034;-67
2023/04/14 01:57:35;;;;;;;7.93;3.13;;;;;;;;;;4972726;28;20406;-66
2023/04/14 02:00:01;;;;;;;8.68;2.92;;;;;;;;;;4972992;28;20099;-67
2023/04/14 02:02:26;;;;;;;9.73;3.38;;;;;;;;;;4973296;28;20098;-67
2023/04/14 02:04:52;;;;;;;8.38;3.03;;;;;;;;;;4973642;28;20441;-66
2023/04/14 02:07:19;;;;;;;7.47;3.10;;;;;;;;;;4972495;28;20027;-70
2023/04/14 02:09:44;;;;;;;8.20;3.50;;;;;;;;;;4973174;28;20019;-67
2023/04/14 02:12:10;;;;;;;7.07;3.20;;;;;;;;;;4972512;28;20102;-67
2023/04/14 02:14:36;;;;;;;7.75;3.08;;;;;;;;;;4973423;28;20102;-67
2023/04/14 02:17:02;;;;;;;7.38;3.47;;;;;;;;;;4972650;28;20455;-65
2023/04/14 02:19:31;;;;;;;7.25;3.13;;;;;;;;;;4973557;28;20022;-66
2023/04/14 02:21:57;;;;;;;7.88;3.00;;;;;;;;;;4972464;28;20494;-67
2023/04/14 02:24:22;;;;;;;6.78;2.95;;;;;;;;;;4974394;28;20081;-67
2023/04/14 02:26:52;;;;;;;7.38;2.97;;;;;;;;;;4975595;28;20101;-65
2023/04/14 02:29:19;;;;;;;7.18;3.03;;;;;;;;;;4973527;28;20074;-65
2023/04/14 02:31:46;;;;;;;6.97;2.78;;;;;;;;;;4975143;28;20019;-66
2023/04/14 02:34:13;;;;;;;8.43;3.10;;;;;;;;;;4979665;28;20418;-66
2023/04/14 02:36:41;;;;;;;6.95;3.05;;;;;;;;;;4980974;28;20029;-69
2023/04/14 02:39:13;;;;;;;8.10;3.10;;;;;;;;;;4983479;28;20030;-68
2023/04/14 02:41:39;;;;;;;7.78;2.85;;;;;;;;;;4983774;28;20508;-71
2023/04/14 02:44:17;;;;;;;10.88;3.60;;;;;;;;;;4986537;28;20033;-66
2023/04/14 02:46:47;;;;;;;6.80;3.10;;;;;;;;;;4988790;28;20058;-68
2023/04/14 02:49:13;;;;;;;9.27;3.10;;;;;;;;;;4978799;28;20034;-66
2023/04/14 02:51:39;;;;;;;8.18;3.58;;;;;;;;;;4974092;28;20023;-66
2023/04/14 02:54:04;;;;;;;9.40;3.10;;;;;;;;;;4972833;28;20057;-65
2023/04/14 02:56:29;;;;;;;8.07;3.30;;;;;;;;;;4971889;28;20026;-66
2023/04/14 02:58:55;;;;;;;6.97;3.40;;;;;;;;;;4973765;28;20019;-67
2023/04/14 03:01:21;;;;;;;8.43;3.33;;;;;;;;;;4974098;28;20557;-67
2023/04/14 03:03:47;;;;;;;7.68;3.17;;;;;;;;;;4972484;28;20045;-67
2023/04/14 03:06:14;;;;;;;8.45;3.10;;;;;;;;;;4972231;28;20030;-66
2023/04/14 03:08:40;;;;;;;9.65;3.25;;;;;;;;;;4972734;28;20125;-66
2023/04/14 03:11:05;;;;;;;7.75;2.72;;;;;;;;;;4972586;28;20018;-64
2023/04/14 03:13:33;;;;;;;5.93;2.70;;;;;;;;;;4976982;28;20086;-66
2023/04/14 03:15:58;;;;;;;8.50;3.25;;;;;;;;;;4979281;28;20109;-68
2023/04/14 03:18:24;;;;;;;11.43;3.63;;;;;;;;;;4975688;28;20051;-67
2023/04/14 03:20:50;;;;;;;6.15;2.92;;;;;;;;;;4955318;29;20103;-69
2023/04/14 03:23:17;;;;;;;6.13;3.17;;;;;;;;;;4959231;28;20505;-67
2023/04/14 03:25:43;;;;;;;9.05;3.05;;;;;;;;;;4962813;29;20152;-66
2023/04/14 03:28:12;;;;;;;7.93;3.20;;;;;;;;;;4959523;29;20067;-67
2023/04/14 03:30:40;;;;;;;9.30;3.53;;;;;;;;;;4961192;29;20027;-66
2023/04/14 03:33:07;;;;;;;7.18;3.45;;;;;;;;;;4961555;28;20022;-66
2023/04/14 03:35:32;;;;;;;;;;;;;;;;;;4960767;29;20064;-65
2023/04/14 03:37:59;;;;;;;7.10;3.22;;;;;;;;;;4957117;28;19910;-66
2023/04/14 03:40:30;;;;;;;8.82;3.70;;;;;;;;;;4956954;29;20019;-67
2023/04/14 03:42:59;;;;;;;9.60;3.72;;;;;;;;;;4956408;29;20456;-67
2023/04/14 03:45:27;;;;;;;9.35;3.70;;;;;;;;;;4957009;29;20074;-66
2023/04/14 03:47:56;;;;;;;11.43;3.97;;;;;;;;;;4958153;28;20102;-65
2023/04/14 03:50:22;;;;;;;11.15;3.90;;;;;;;;;;4956415;29;20027;-65
2023/04/14 03:52:49;;;;;;;10.10;4.22;;;;;;;;;;4955791;29;20621;-66
2023/04/14 03:55:14;;;;;;;;;;;;;;;;;;4957023;29;20029;-65
2023/04/14 03:57:40;;;;;;;8.50;3.80;;;;;;;;;;4955673;28;19993;-66
2023/04/14 04:00:07;;;;;;;11.57;3.78;;;;;;;;;;4956100;29;20023;-65
2023/04/14 04:02:33;;;;;;;10.10;3.47;;;;;;;;;;4955942;29;20051;-65
2023/04/14 04:04:59;;;;;;;12.80;4.03;;;;;;;;;;4955853;29;20062;-65
2023/04/14 04:07:25;;;;;;;7.43;3.63;;;;;;;;;;4955466;28;20015;-65
2023/04/14 04:09:51;;;;;;;8.82;4.13;;;;;;;;;;4956410;28;20082;-66
2023/04/14 04:12:17;;;;;;;9.55;4.30;;;;;;;;;;4957244;29;20464;-67
2023/04/14 04:14:42;;;;;;;10.68;3.85;;;;;;;;;;4957123;29;20082;-68
2023/04/14 04:17:08;;;;;;;10.83;4.27;;;;;;;;;;4956517;29;20019;-67
2023/04/14 04:19:34;;;;;;;11.30;4.95;;;;;;;;;;4967488;28;20518;-67
2023/04/14 04:22:00;;;;;;;13.60;4.03;;;;;;;;;;4975864;28;20019;-66
2023/04/14 04:24:27;;;;;;;10.98;4.13;;;;;;;;;;4977521;28;20025;-65
2023/04/14 04:26:53;;;;;;;12.75;4.18;;;;;;;;;;4977491;28;20046;-68
2023/04/14 04:29:19;;;;;;;9.85;4.10;;;;;;;;;;4978575;28;20031;-67
2023/04/14 04:31:44;;;;;;;11.40;4.65;;;;;;;;;;4976589;28;20042;-68
2023/04/14 04:34:10;;;;;;;9.32;4.32;;;;;;;;;;4974115;28;20046;-66
2023/04/14 04:36:36;;;;;;;8.75;3.92;;;;;;;;;;4974426;28;20023;-67
2023/04/14 04:39:01;;;;;;;11.07;4.47;;;;;;;;;;4974945;28;20026;-67
2023/04/14 04:41:27;;;;;;;8.32;4.03;;;;;;;;;;4975140;28;20106;-67
2023/04/14 04:43:52;;;;;;;11.15;4.35;;;;;;;;;;4974327;28;20062;-65
2023/04/14 04:46:32;;;;;;;8.27;3.42;;;;;;;;;;4974287;28;20605;-67
2023/04/14 04:48:57;;;;;;;10.90;4.55;;;;;;;;;;4974365;28;20077;-65
2023/04/14 04:51:22;;;;;;;9.52;4.68;;;;;;;;;;4974806;28;20502;-65
2023/04/14 04:53:47;;;;;;;9.07;4.50;;;;;;;;;;4971889;28;20027;-66
2023/04/14 04:56:13;;;;;;;9.48;4.35;;;;;;;;;;4974963;28;20093;-66
2023/04/14 04:58:38;;;;;;;11.63;4.90;;;;;;;;;;4974329;28;20517;-67
2023/04/14 05:01:09;;;;;;;10.48;4.20;;;;;;;;;;4974509;28;20026;-67
2023/04/14 05:03:35;;;;;;;8.98;4.20;;;;;;;;;;4974282;28;20125;-66
2023/04/14 05:06:00;;;;;;;7.85;3.83;;;;;;;;;;4974677;28;20102;-65
2023/04/14 05:08:25;;;;;;;10.53;4.47;;;;;;;;;;4974402;28;20019;-66
2023/04/14 05:10:51;;;;;;;10.63;4.82;;;;;;;;;;4974447;28;20022;-65
2023/04/14 05:13:16;;;;;;;11.60;4.97;;;;;;;;;;4974254;28;20102;-65
2023/04/14 05:15:41;;;;;;;10.07;5.20;;;;;;;;;;4974168;28;20019;-68
2023/04/14 05:18:06;;;;;;;8.63;4.30;;;;;;;;;;4973350;28;20474;-66
2023/04/14 05:20:32;;;;;;;8.40;4.87;;;;;;;;;;4955442;28;20450;-66
2023/04/14 05:22:57;;;;;;;9.88;5.30;;;;;;;;;;4955041;29;20027;-66
2023/04/14 05:25:22;;;;;;;11.20;5.10;;;;;;;;;;4954822;29;20031;-66
2023/04/14 05:27:47;;;;;;;11.45;4.75;;;;;;;;;;4953172;29;20503;-67
2023/04/14 05:30:12;;;;;;;11.23;5.10;;;;;;;;;;4954673;29;20066;-67
2023/04/14 05:32:37;;;;;;;13.93;5.63;;;;;;;;;;4954900;29;20027;-66
2023/04/14 05:35:04;;;;;;;12.13;4.85;;;;;;;;;;4955684;29;20027;-65
2023/04/14 05:37:29;;;;;;;13.63;5.35;;;;;;;;;;4961422;29;20027;-64
2023/04/14 05:39:54;;;;;;;11.93;5.50;;;;;;;;;;4970929;29;20079;-67
2023/04/14 05:42:20;;;;;;;10.77;6.13;;;;;;;;;;4965389;29;20480;-67
2023/04/14 05:44:45;;;;;;;10.35;5.43;;;;;;;;;;4957073;29;20027;-66
2023/04/14 05:47:10;;;;;;;10.70;4.95;;;;;;;;;;4953982;28;20498;-69
2023/04/14 05:49:36;;;;;;;11.35;5.13;;;;;;;;;;4954819;28;20039;-67
2023/04/14 05:52:01;;;;;;;9.50;5.40;;;;;;;;;;4954867;28;20027;-65
2023/04/14 05:54:27;;;;;;;11.00;5.17;;;;;;;;;;4955348;29;20579;-65
2023/04/14 05:56:52;;;;;;;12.17;5.57;;;;;;;;;;4955872;29;20050;-69
2023/04/14 05:59:17;;;;;;;13.60;5.33;;;;;;;;;;4958206;29;20019;-68
2023/04/14 06:01:42;;;;;;;9.60;4.83;;;;;;;;;;4960105;29;20075;-66
2023/04/14 06:04:07;;;;;;;8.40;4.57;;;;;;;;;;4956155;29;20106;-67
2023/04/14 06:06:32;;;;;;;12.95;5.10;;;;;;;;;;4955996;29;20090;-67
2023/04/14 06:08:57;;;;;;;11.38;5.13;;;;;;;;;;4956894;29;20034;-65
2023/04/14 06:11:23;;;;;;;10.63;4.97;;;;;;;;;;4954802;29;20023;-66
2023/04/14 06:13:49;;;;;;;10.67;5.10;;;;;;;;;;4955236;29;20498;-66
2023/04/14 06:16:14;;;;;;;12.55;5.45;;;;;;;;;;4954332;28;20054;-66
2023/04/14 06:18:40;;;;;;;11.32;5.78;;;;;;;;;;4957451;28;20665;-67
2023/04/14 06:21:05;;;;;;;12.90;5.95;;;;;;;;;;4973516;28;20034;-68
2023/04/14 06:23:31;;;;;;;10.38;5.72;;;;;;;;;;4973420;28;20030;-68
2023/04/14 06:25:56;;;;;;;12.45;5.70;;;;;;;;;;4973094;28;20501;-66
2023/04/14 06:28:22;;;;;;;11.10;5.82;;;;;;;;;;4972420;28;20027;-66
2023/04/14 06:30:48;;;;;;;11.45;6.35;;;;;;;;;;4973331;28;20030;-65
2023/04/14 06:33:13;;;;;;;13.70;7.13;;;;;;;;;;4973297;28;20029;-65
2023/04/14 06:35:38;;;;;;;10.43;5.80;;;;;;;;;;4973256;28;20489;-65
2023/04/14 06:38:03;;;;;;;14.17;5.83;;;;;;;;;;4972827;28;20038;-67
2023/04/14 06:40:28;;;;;;;12.30;5.63;;;;;;;;;;4973879;28;20015;-65
2023/04/14 06:42:54;;;;;;;13.05;6.57;;;;;;;;;;4975462;28;20023;-65
2023/04/14 06:45:19;;;;;;;11.38;6.13;;;;;;;;;;4975287;28;20475;-65
2023/04/14 06:47:44;;;;;;;13.80;6.50;;;;;;;;;;4974204;28;20502;-67
2023/04/14 06:50:09;;;;;;;13.00;5.90;;;;;;;;;;4974952;28;20026;-65
2023/04/14 06:52:35;;;;;;;10.63;5.57;;;;;;;;;;4975740;28;20019;-66
2023/04/14 06:55:00;;;;;;;10.10;5.40;;;;;;;;;;4977311;28;20025;-66
2023/04/14 06:57:26;;;;;;;11.63;5.20;;;;;;;;;;4972853;28;20466;-65
2023/04/14 06:59:51;;;;;;;11.32;6.55;;;;;;;;;;4975072;28;20436;-67
2023/04/14 07:02:16;;;;;;;12.93;6.10;;;;;;;;;;4976514;28;20033;-66
2023/04/14 07:04:41;;;;;;;12.55;6.35;;;;;;;;;;4976057;28;20062;-67
2023/04/14 07:07:06;;;;;;;13.65;6.40;;;;;;;;;;4976251;28;20111;-65
2023/04/14 07:09:32;;;;;;;11.20;6.00;;;;;;;;;;4976552;28;20029;-66
2023/04/14 07:11:57;;;;;;;10.95;5.70;;;;;;;;;;4974174;28;20019;-68
2023/04/14 07:14:22;;;;;;;10.83;5.93;;;;;;;;;;4973046;28;20035;-65
2023/04/14 07:16:49;;;;;;;11.75;6.07;;;;;;;;;;4972679;28;20530;-67
2023/04/14 07:19:14;;;;;;;11.32;6.00;;;;;;;;;;4964554;28;20081;-65
2023/04/14 07:21:39;;;;;;;11.73;6.07;;;;;;;;;;4953598;29;20019;-66
2023/04/14 07:24:05;;;;;;;13.57;6.68;;;;;;;;;;4953893;29;20391;-66
2023/04/14 07:26:30;;;;;;;13.83;6.10;;;;;;;;;;4953811;29;20020;-65
2023/04/14 07:28:55;;;;;;;11.40;5.55;;;;;;;;;;4953830;29;20026;-66
2023/04/14 07:31:21;;;;;;;12.18;6.25;;;;;;;;;;4953860;29;20031;-65
2023/04/14 07:33:46;;;;;;;12.23;5.97;;;;;;;;;;4953252;28;20055;-65
2023/04/14 07:36:11;;;;;;;11.13;5.90;;;;;;;;;;4953340;29;20018;-65
2023/04/14 07:38:36;;;;;;;10.30;6.13;;;;;;;;;;4953414;28;20034;-67
2023/04/14 07:41:02;;;;;;;10.47;5.30;;;;;;;;;;4952998;28;20414;-66
2023/04/14 07:43:33;;;;;;;12.57;5.00;;;;;;;;;;4952681;29;20036;-67
2023/04/14 07:45:58;;;;;;;10.60;5.18;;;;;;;;;;4952658;29;20063;-65
2023/04/14 07:48:23;;;;;;;11.43;5.77;;;;;;;;;;4952081;28;20023;-66
2023/04/14 07:50:49;;;;;;;10.05;5.43;;;;;;;;;;4953370;28;20051;-66
2023/04/14 07:53:14;;;;;;;15.40;6.40;;;;;;;;;;4952877;28;20019;-68
2023/04/14 07:55:39;;;;;;;12.67;5.50;;;;;;;;;;4952948;29;20024;-66
2023/04/14 07:58:04;;;;;;;10.50;5.65;;;;;;;;;;4952367;28;20391;-66
2023/04/14 08:00:30;;;;;;;11.47;5.80;;;;;;;;;;4952650;29;20478;-67
2023/04/14 08:02:55;;;;;;;10.93;6.03;;;;;;;;;;4952482;28;20101;-66
2023/04/14 08:05:20;;;;;;;10.80;5.32;;;;;;;;;;4952904;29;20458;-65
2023/04/14 08:07:46;;;;;;;10.43;5.72;;;;;;;;;;4953021;28;20023;-65
2023/04/14 08:10:11;;;;;;;11.23;5.22;;;;;;;;;;4957181;28;20051;-65
2023/04/14 08:12:37;;;;;;;10.05;5.40;;;;;;;;;;4961300;29;20030;-66
2023/04/14 08:15:02;;;;;;;10.05;5.18;;;;;;;;;;4974402;29;20035;-66
2023/04/14 08:17:27;;;;;;;10.90;5.77;;;;;;;;;;4973765;28;20430;-68
2023/04/14 08:19:52;;;;;;;9.90;5.78;;;;;;;;;;4983540;28;20018;-67
2023/04/14 08:22:17;;;;;;;10.55;5.93;;;;;;;;;;4986774;28;20497;-65
2023/04/14 08:24:42;;;;;;;9.13;5.00;;;;;;;;;;4975258;28;20018;-65
2023/04/14 08:27:08;;;;;;;9.17;5.60;;;;;;;;;;4974903;28;20027;-66
2023/04/14 08:29:33;;;;;;;13.30;5.55;;;;;;;;;;4975847;28;20398;-65
2023/04/14 08:31:58;;;;;;;11.18;6.47;;;;;;;;;;4975157;28;20019;-66
2023/04/14 08:34:23;;;;;;;14.83;6.47;;;;;;;;;;4975697;28;20105;-66
2023/04/14 08:36:48;;;;;;;11.53;5.80;;;;;;;;;;4974531;28;20027;-67
2023/04/14 08:39:13;;;;;;;12.57;5.93;;;;;;;;;;4975113;28;20407;-67
2023/04/14 08:41:39;;;;;;;11.57;5.93;;;;;;;;;;4975690;28;20033;-68
2023/04/14 08:44:04;;;;;;;11.70;5.70;;;;;;;;;;4975230;28;20050;-66
2023/04/14 08:46:30;;;;;;;11.65;5.43;;;;;;;;;;4974209;28;20077;-66
2023/04/14 08:48:57;;;;;;;13.68;6.05;;;;;;;;;;4974908;28;20132;-66
2023/04/14 08:51:38;;;;;;;7.75;4.40;;;;;;;;;;4975654;28;20102;-67
2023/04/14 08:54:07;;;;;;;8.73;5.18;;;;;;;;;;4974985;28;20029;-66
2023/04/14 08:56:33;;;;;;;9.40;5.00;;;;;;;;;;4974219;28;20019;-66
2023/04/14 08:59:00;;;;;;;10.88;5.75;;;;;;;;;;4974684;28;20053;-66
2023/04/14 09:01:29;;;;;;;10.70;5.75;;;;;;;;;;4974858;28;20027;-66
2023/04/14 09:03:55;;;;;;;11.40;6.25;;;;;;;;;;4974232;28;20557;-66
2023/04/14 09:06:21;;;;;;;9.90;5.95;;;;;;;;;;4974752;28;20035;-65
2023/04/14 09:08:46;;;;;;;11.93;7.00;;;;;;;;;;4974800;28;20475;-64
2023/04/14 09:11:12;;;;;;;12.20;7.20;;;;;;;;;;4974877;28;20041;-66
2023/04/14 09:13:39;;;;;;;13.15;6.93;;;;;;;;;;4974065;28;20102;-67
2023/04/14 09:16:04;;;;;;;10.48;5.85;;;;;;;;;;4974868;28;20023;-65
2023/04/14 09:18:30;;;;;;;11.68;5.53;;;;;;;;;;4971535;28;20029;-66
2023/04/14 09:20:57;;;;;;;8.70;5.03;;;;;;;;;;4954608;28;20023;-67
2023/04/14 09:23:22;;;;;;;9.07;4.38;;;;;;;;;;4955824;29;20554;-67
2023/04/14 09:25:47;;;;;;;7.73;4.00;;;;;;;;;;4958694;29;20115;-67
2023/04/14 09:28:13;;;;;;;7.68;4.05;;;;;;;;;;4960013;29;20097;-66
2023/04/14 09:30:42;;;;;;;11.15;4.10;;;;;;;;;;4957470;29;20397;-66
2023/04/14 09:33:16;;;;;;;8.30;4.10;;;;;;;;;;4955945;29;20471;-66
2023/04/14 09:35:50;;;;;;;7.13;4.03;;;;;;;;;;4960162;29;20029;-66
2023/04/14 09:38:35;;;;;;;7.47;3.70;;;;;;;;;;4958850;29;20391;-66
2023/04/14 09:41:01;;;;;;;8.07;3.83;;;;;;;;;;4955049;29;20024;-66
2023/04/14 09:43:26;;;;;;;8.57;3.78;;;;;;;;;;4957702;28;20565;-67
2023/04/14 09:45:52;;;;;;;6.53;3.80;;;;;;;;;;4958780;29;20043;-66
2023/04/14 09:48:17;;;;;;;8.13;4.00;;;;;;;;;;4954121;28;20109;-65
2023/04/14 09:50:55;;;;;;;7.00;3.80;;;;;;;;;;4955033;29;20023;-66
2023/04/14 09:53:26;;;;;;;10.25;3.85;;;;;;;;;;4953955;28;20051;-65
2023/04/14 09:55:52;;;;;;;8.25;4.15;;;;;;;;;;4952809;29;20054;-66
2023/04/14 09:58:20;;;;;;;9.93;4.93;;;;;;;;;;4953863;29;20051;-66
2023/04/14 10:00:46;;;;;;;8.77;4.10;;;;;;;;;;4954224;29;20426;-65
2023/04/14 10:03:11;;;;;;;7.80;3.90;;;;;;;;;;4953756;29;20027;-65
2023/04/14 10:05:36;;;;;;;6.80;3.70;;;;;;;;;;4954274;29;20023;-66
2023/04/14 10:08:02;;;;;;;7.47;3.40;;;;;;;;;;4953670;29;20019;-65
2023/04/14 10:10:28;;;;;;;8.60;3.50;;;;;;;;;;4953841;29;20562;-66
2023/04/14 10:12:53;;;;;;;8.57;3.90;;;;;;;;;;4954544;29;20038;-65
2023/04/14 10:15:18;;;;;;;7.60;3.45;;;;;;;;;;4954978;29;20027;-65
2023/04/14 10:17:44;;;;;;;5.90;3.17;;;;;;;;;;4955416;29;20087;-65
2023/04/14 10:20:09;;;;;;;6.38;3.53;;;;;;;;;;4972456;28;20356;-65
2023/04/14 10:22:35;;;;;;;6.93;3.33;;;;;;;;;;4975895;28;20015;-65
2023/04/14 10:25:00;;;;;;;6.72;3.05;;;;;;;;;;4976669;28;20083;-65
2023/04/14 10:27:27;;;;;;;10.15;3.85;;;;;;;;;;4977768;28;20497;-65
2023/04/14 10:29:52;;;;;;;6.50;3.20;;;;;;;;;;4978043;28;20030;-65
2023/04/14 10:32:17;;;;;;;7.15;3.85;;;;;;;;;;4981455;28;20106;-65
2023/04/14 10:34:55;;;;;;;6.28;3.50;;;;;;;;;;4981583;28;20029;-66
2023/04/14 10:37:20;;;;;;;8.48;3.17;;;;;;;;;;4978080;28;20027;-65
2023/04/14 10:39:55;;;;;;;8.20;3.53;;;;;;;;;;4975756;28;20283;-66
2023/04/14 10:42:21;;;;;;;6.65;3.42;;;;;;;;;;4974083;28;20054;-64
2023/04/14 10:45:00;;;;;;;6.57;3.35;;;;;;;;;;4973207;28;20023;-66
2023/04/14 10:47:25;;;;;;;6.38;3.13;;;;;;;;;;4973253;28;20037;-67
2023/04/14 10:49:54;;;;;;;7.10;3.53;;;;;;;;;;4972837;28;20031;-65
2023/04/14 10:52:21;;;;;;;7.90;3.50;;;;;;;;;;4972634;28;20031;-65
2023/04/14 10:54:53;;;;;;;9.60;3.88;;;;;;;;;;4973137;28;20442;-66
2023/04/14 10:57:22;;;;;;;7.25;3.53;;;;;;;;;;4972451;28;20027;-65
2023/04/14 10:59:47;;;;;;;7.43;3.50;;;;;;;;;;4972366;28;20042;-66
2023/04/14 11:02:24;;;;;;;8.13;3.75;;;;;;;;;;4973935;28;20025;-66
2023/04/14 11:05:03;;;;;;;7.22;3.50;;;;;;;;;;4974353;28;20431;-64
2023/04/14 11:07:29;;;;;;;6.68;3.53;;;;;;;;;;4978610;28;20027;-67
2023/04/14 11:10:13;;;;;;;7.07;3.50;;;;;;;;;;4982961;28;20094;-67
2023/04/14 11:12:42;;;;;;;9.48;3.50;;;;;;;;;;4978881;28;20027;-66
2023/04/14 11:15:07;;;;;;;7.38;3.13;;;;;;;;;;4976045;28;20019;-66
2023/04/14 11:17:36;;;;;;;5.30;2.55;;;;;;;;;;4972876;28;20066;-65
2023/04/14 11:20:12;;;;;;;7.78;3.15;;;;;;;;;;4958007;28;20019;-64
2023/04/14 11:22:42;;;;;;;5.40;3.08;;;;;;;;;;4952746;28;20038;-66
2023/04/14 11:25:10;;;;;;;5.63;2.67;;;;;;;;;;4953674;28;20569;-66
2023/04/14 11:27:36;;;;;;;5.75;2.88;;;;;;;;;;4953153;29;20055;-67
2023/04/14 11:30:01;;;;;;;6.93;3.05;;;;;;;;;;4953724;28;20103;-66
2023/04/14 11:32:27;;;;;;;5.97;2.77;;;;;;;;;;4953140;29;20372;-66
2023/04/14 11:34:52;;;;;;;7.80;3.42;;;;;;;;;;4952843;29;20028;-65
2023/04/14 11:37:17;;;;;;;6.88;3.20;;;;;;;;;;4952216;29;20027;-65
2023/04/14 11:39:42;;;;;;;5.95;2.90;;;;;;;;;;4953321;29;20091;-66
2023/04/14 11:42:07;;;;;;;7.95;3.40;;;;;;;;;;4952991;29;20070;-66
2023/04/14 11:44:33;;;;;;;6.47;3.00;;;;;;;;;;4955455;28;20027;-65
2023/04/14 11:46:59;;;;;;;7.38;3.20;;;;;;;;;;4973074;28;20027;-67
2023/04/14 11:49:36;;;;;;;6.70;3.20;;;;;;;;;;4975859;28;20110;-66
2023/04/14 11:52:03;;;;;;;6.90;3.45;;;;;;;;;;4976077;28;20058;-66
2023/04/14 11:54:35;;;;;;;8.07;3.08;;;;;;;;;;4975329;28;20031;-66
2023/04/14 11:57:01;;;;;;;6.63;3.67;;;;;;;;;;4975493;28;20498;-65
2023/04/14 11:59:26;;;;;;;;;;;;;;;;;;4975940;28;20458;-64
2023/04/14 12:01:52;;;;;;;6.30;3.25;;;;;;;;;;4975696;28;19906;-65
2023/04/14 12:04:17;;;;;;;6.78;3.35;;;;;;;;;;4975514;28;20130;-66
2023/04/14 12:06:43;;;;;;;7.82;4.25;;;;;;;;;;4975381;28;20023;-66
2023/04/14 12:09:08;;;;;;;5.85;3.33;;;;;;;;;;4975630;28;20042;-67
2023/04/14 12:11:33;;;;;;;6.50;3.60;;;;;;;;;;4976122;28;20026;-65
2023/04/14 12:14:00;;;;;;;5.78;3.30;;;;;;;;;;4975593;28;20032;-65
2023/04/14 12:16:25;;;;;;;6.43;3.42;;;;;;;;;;4975524;28;20066;-66
2023/04/14 12:18:51;;;;;;;6.85;3.33;;;;;;;;;;4975928;28;20050;-64
2023/04/14 12:21:19;;;;;;;6.67;4.00;;;;;;;;;;4975942;28;20090;-65
2023/04/14 12:23:48;;;;;;;7.45;3.28;;;;;;;;;;4975885;28;20089;-65
2023/04/14 12:26:14;;;;;;;8.93;3.30;;;;;;;;;;4975622;28;20518;-65
2023/04/14 12:28:40;;;;;;;8.38;4.50;;;;;;;;;;4975420;28;20030;-65
2023/04/14 12:31:06;;;;;;;6.63;3.60;;;;;;;;;;4975746;28;20033;-66
2023/04/14 12:33:32;;;;;;;7.68;4.25;;;;;;;;;;4974767;28;20026;-65
2023/04/14 12:36:04;;;;;;;7.80;4.38;;;;;;;;;;4975214;28;20467;-66
2023/04/14 12:38:29;;;;;;;6.18;3.70;;;;;;;;;;4974483;28;20079;-66
2023/04/14 12:40:55;;;;;;;7.33;4.40;;;;;;;;;;4974852;28;20142;-64
2023/04/14 12:43:30;;;;;;;9.02;3.88;;;;;;;;;;4975011;28;20035;-65
2023/04/14 12:45:57;;;;;;;6.82;4.03;;;;;;;;;;4974867;28;20046;-66
2023/04/14 12:48:36;;;;;;;7.72;3.80;;;;;;;;;;4975905;28;20033;-66
2023/04/14 12:51:08;;;;;;;12.80;4.47;;;;;;;;;;4977142;28;20019;-64
2023/04/14 12:53:33;;;;;;;6.75;4.18;;;;;;;;;;4975151;28;20023;-64
2023/04/14 12:56:05;;;;;;;7.43;4.20;;;;;;;;;;4974500;28;20023;-64
2023/04/14 12:58:31;;;;;;;;;;;;;;;;;;4977512;28;20086;-65
2023/04/14 13:00:56;;;;;;;7.73;4.30;;;;;;;;;;4978134;28;19914;-64
2023/04/14 13:03:21;;;;;;;7.30;4.00;;;;;;;;;;4979695;28;20081;-64
2023/04/14 13:05:46;;;;;;;6.33;3.30;;;;;;;;;;4981618;28;20969;-63
2023/04/14 13:08:11;;;;;;;7.75;4.13;;;;;;;;;;4982302;28;20031;-63
2023/04/14 13:10:36;;;;;;;7.53;4.32;;;;;;;;;;4981127;28;20014;-64
2023/04/14 13:13:02;;;;;;;6.53;3.63;;;;;;;;;;4982499;28;20030;-65
2023/04/14 13:15:27;;;;;;;7.65;4.20;;;;;;;;;;4984917;28;20035;-64
2023/04/14 13:17:52;;;;;;;6.00;3.40;;;;;;;;;;4986880;28;20019;-64
2023/04/14 13:20:17;;;;;;;9.18;4.40;;;;;;;;;;4987926;28;20054;-64
2023/04/14 13:22:42;;;;;;;6.87;4.13;;;;;;;;;;4978317;28;20034;-64
2023/04/14 13:25:07;;;;;;;6.13;3.80;;;;;;;;;;4979436;28;20022;-69
2023/04/14 13:27:33;;;;;;;8.50;4.30;;;;;;;;;;4975990;28;20023;-65
2023/04/14 13:29:58;;;;;;;7.25;3.78;;;;;;;;;;4974630;28;20497;-64
2023/04/14 13:32:23;;;;;;;7.75;4.32;;;;;;;;;;4974747;28;20023;-65
2023/04/14 13:34:48;;;;;;;7.87;4.40;;;;;;;;;;4975046;28;20057;-65
2023/04/14 13:37:13;;;;;;;8.00;4.32;;;;;;;;;;4975087;28;20023;-65
2023/04/14 13:39:38;;;;;;;8.20;4.27;;;;;;;;;;4979507;28;20037;-65
2023/04/14 13:42:04;;;;;;;7.07;4.03;;;;;;;;;;4984165;28;20462;-64
2023/04/14 13:44:31;;;;;;;7.50;4.60;;;;;;;;;;4986721;28;20525;-64
2023/04/14 13:46:56;;;;;;;9.13;5.13;;;;;;;;;;4989446;28;20098;-65
2023/04/14 13:49:21;;;;;;;7.80;4.40;;;;;;;;;;4991876;28;20046;-66
2023/04/14 13:51:46;;;;;;;9.17;5.17;;;;;;;;;;4988683;28;20098;-65
2023/04/14 13:54:11;;;;;;;7.87;4.57;;;;;;;;;;4992411;28;20013;-65
2023/04/14 13:56:37;;;;;;;7.28;4.65;;;;;;;;;;4990555;28;20130;-65
2023/04/14 13:59:02;;;;;;;6.40;4.00;;;;;;;;;;4985953;28;20038;-66
2023/04/14 14:01:27;;;;;;;6.57;3.97;;;;;;;;;;4983920;28;20059;-65
2023/04/14 14:03:52;;;;;;;9.02;4.70;;;;;;;;;;4982676;28;20031;-68
2023/04/14 14:06:18;;;;;;;7.05;3.83;;;;;;;;;;4976348;28;20046;-64
2023/04/14 14:08:43;;;;;;;7.75;4.00;;;;;;;;;;4979806;28;20023;-64
2023/04/14 14:11:09;;;;;;;11.10;5.83;;;;;;;;;;4978944;28;20041;-66
2023/04/14 14:13:35;;;;;;;6.93;3.90;;;;;;;;;;4976120;28;20027;-65
2023/04/14 14:16:01;;;;;;;6.13;3.58;;;;;;;;;;4974345;28;20050;-65
2023/04/14 14:18:26;;;;;;;6.15;3.17;;;;;;;;;;4972852;28;20023;-66
2023/04/14 14:20:51;;;;;;;6.80;3.40;;;;;;;;;;4973338;28;20086;-66
2023/04/14 14:23:16;;;;;;;6.50;3.92;;;;;;;;;;4973201;28;20172;-64
2023/04/14 14:25:41;;;;;;;5.43;3.17;;;;;;;;;;4974299;28;20027;-66
2023/04/14 14:28:07;;;;;;;6.57;3.77;;;;;;;;;;4972922;28;20035;-66
2023/04/14 14:30:33;;;;;;;8.67;4.40;;;;;;;;;;4973418;28;20019;-65
2023/04/14 14:32:58;;;;;;;6.72;3.80;;;;;;;;;;4973144;28;20026;-63
2023/04/14 14:35:23;;;;;;;6.18;3.50;;;;;;;;;;4973128;28;20114;-65